sensor_id;sensor_type;location;lat;lon;timestamp;temperature;humidity
9385;DHT22;4732;49.340;10.886;2023-05-10T03:02:20;14.30;99.90
9385;DHT22;4732;49.340;10.886;2023-05-10T03:04:46;14.30;99.90
9385;DHT22;4732;49.340;10.886;2023-05-10T03:07:11;14.40;99.90
9385;DHT22;4732;49.340;10.886;2023-05-10T03:09:37;14.40;99.90
9385;DHT22;4732;49.340;10.886;2023-05-10T03:17:48;14.20;99.90
9385;DHT22;4732;49.340;10.886;2023-05-10T03:20:26;14.20;99.90
9385;DHT22;4732;49.340;10.886;2023-05-10T03:22:55;14.20;99.90
9385;DHT22;4732;49.340;10.886;2023-05-10T03:25:26;14.20;99.90
9385;DHT22;4732;49.340;10.886;2023-05-10T03:27:52;14.20;99.90
9385;DHT22;4732;49.340;10.886;2023-05-10T03:30:18;14.20;99.90
9385;DHT22;4732;49.340;10.886;2023-05-10T03:32:44;14.10;99.90
9385;DHT22;4732;49.340;10.886;2023-05-10T03:35:11;14.10;99.90
9385;DHT22;4732;49.340;10.886;2023-05-10T03:37:38;14.00;99.90
9385;DHT22;4732;49.340;10.886;2023-05-10T03:40:04;13.80;99.90
9385;DHT22;4732;49.340;10.886;2023-05-10T03:42:30;13.80;99.90
9385;DHT22;4732;49.340;10.886;2023-05-10T03:44:55;13.80;99.90
9385;DHT22;4732;49.340;10.886;2023-05-10T03:47:21;13.90;99.90
9385;DHT22;4732;49.340;10.886;2023-05-10T03:49:46;13.90;99.90
9385;DHT22;4732;49.340;10.886;2023-05-10T03:52:12;13.90;99.90
9385;DHT22;4732;49.340;10.886;2023-05-10T03:54:38;13.90;99.90
9385;DHT22;4732;49.340;10.886;2023-05-10T03:57:03;13.90;99.90
9385;DHT22;4732;49.340;10.886;2023-05-10T03:59:29;13.90;99.90
9385;DHT22;4732;49.340;10.886;2023-05-10T04:01:55;13.90;99.90
9385;DHT22;4732;49.340;10.886;2023-05-10T04:04:21;14.00;99.90
9385;DHT22;4732;49.340;10.886;2023-05-10T04:06:47;13.80;99.90
9385;DHT22;4732;49.340;10.886;2023-05-10T04:09:13;13.60;99.90
9385;DHT22;4732;49.340;10.886;2023-05-10T04:11:38;13.60;99.90
9385;DHT22;4732;49.340;10.886;2023-05-10T04:14:04;13.50;99.90
9385;DHT22;4732;49.340;10.886;2023-05-10T04:16:30;13.40;99.90
9385;DHT22;4732;49.340;10.886;2023-05-10T04:18:55;13.30;99.90
9385;DHT22;4732;49.340;10.886;2023-05-10T04:21:21;13.40;99.90
9385;DHT22;4732;49.340;10.886;2023-05-10T04:23:46;13.40;99.90
9385;DHT22;4732;49.340;10.886;2023-05-10T04:26:12;13.50;99.90
9385;DHT22;4732;49.340;10.886;2023-05-10T04:28:38;13.50;99.90
9385;DHT22;4732;49.340;10.886;2023-05-10T04:31:06;13.50;99.90
9385;DHT22;4732;49.340;10.886;2023-05-10T04:33:33;13.50;99.90
9385;DHT22;4732;49.340;10.886;2023-05-10T04:35:59;13.50;99.90
9385;DHT22;4732;49.340;10.886;2023-05-10T04:38:25;13.70;99.90
9385;DHT22;4732;49.340;10.886;2023-05-10T04:40:51;13.60;99.90
9385;DHT22;4732;49.340;10.886;2023-05-10T04:43:16;13.50;99.90
9385;DHT22;4732;49.340;10.886;2023-05-10T04:45:42;13.50;99.90
9385;DHT22;4732;49.340;10.886;2023-05-10T04:48:07;13.40;99.90
9385;DHT22;4732;49.340;10.886;2023-05-10T04:50:33;13.40;99.90
9385;DHT22;4732;49.340;10.886;2023-05-10T04:52:58;13.40;99.90
9385;DHT22;4732;49.340;10.886;2023-05-10T04:55:24;13.30;99.90
9385;DHT22;4732;49.340;10.886;2023-05-10T04:57:50;13.40;99.90
9385;DHT22;4732;49.340;10.886;2023-05-10T05:00:16;13.40;99.90
9385;DHT22;4732;49.340;10.886;2023-05-10T05:02:45;13.50;99.90
9385;DHT22;4732;49.340;10.886;2023-05-10T05:05:11;13.50;99.90
9385;DHT22;4732;49.340;10.886;2023-05-10T05:07:36;13.50;99.90
9385;DHT22;4732;49.340;10.886;2023-05-10T05:10:07;13.50;99.90
9385;DHT22;4732;49.340;10.886;2023-05-10T05:12:32;13.40;99.90
9385;DHT22;4732;49.340;10.886;2023-05-10T05:14:58;13.50;99.90
9385;DHT22;4732;49.340;10.886;2023-05-10T05:17:23;13.40;99.90
9385;DHT22;4732;49.340;10.886;2023-05-10T05:19:49;13.40;99.90
9385;DHT22;4732;49.340;10.886;2023-05-10T05:22:14;13.40;99.90
9385;DHT22;4732;49.340;10.886;2023-05-10T05:24:40;13.50;99.90
9385;DHT22;4732;49.340;10.886;2023-05-10T05:27:06;13.50;99.90
9385;DHT22;4732;49.340;10.886;2023-05-10T05:29:32;13.60;99.90
9385;DHT22;4732;49.340;10.886;2023-05-10T05:31:57;13.70;99.90
9385;DHT22;4732;49.340;10.886;2023-05-10T05:34:23;13.70;99.90
9385;DHT22;4732;49.340;10.886;2023-05-10T05:36:49;13.70;99.90
9385;DHT22;4732;49.340;10.886;2023-05-10T05:39:15;13.70;99.90
9385;DHT22;4732;49.340;10.886;2023-05-10T05:41:41;13.80;99.90
9385;DHT22;4732;49.340;10.886;2023-05-10T05:44:06;13.80;99.90
9385;DHT22;4732;49.340;10.886;2023-05-10T05:46:32;13.70;99.90
9385;DHT22;4732;49.340;10.886;2023-05-10T05:48:57;13.80;99.90
9385;DHT22;4732;49.340;10.886;2023-05-10T05:51:23;13.80;99.90
9385;DHT22;4732;49.340;10.886;2023-05-10T05:53:48;13.80;99.90
9385;DHT22;4732;49.340;10.886;2023-05-10T05:56:14;13.80;99.90
9385;DHT22;4732;49.340;10.886;2023-05-10T05:58:39;13.80;99.90
9385;DHT22;4732;49.340;10.886;2023-05-10T06:01:05;13.90;99.90
9385;DHT22;4732;49.340;10.886;2023-05-10T06:03:30;13.80;99.90
9385;DHT22;4732;49.340;10.886;2023-05-10T06:05:56;13.90;99.90
9385;DHT22;4732;49.340;10.886;2023-05-10T06:08:21;14.00;99.90
9385;DHT22;4732;49.340;10.886;2023-05-10T06:10:47;14.00;99.90
9385;DHT22;4732;49.340;10.886;2023-05-10T06:13:13;14.10;99.90
9385;DHT22;4732;49.340;10.886;2023-05-10T06:15:39;14.20;99.90
9385;DHT22;4732;49.340;10.886;2023-05-10T06:18:04;14.30;99.90
9385;DHT22;4732;49.340;10.886;2023-05-10T06:20:31;14.30;99.90
9385;DHT22;4732;49.340;10.886;2023-05-10T06:22:59;14.30;99.90
9385;DHT22;4732;49.340;10.886;2023-05-10T06:25:25;14.40;99.90
9385;DHT22;4732;49.340;10.886;2023-05-10T06:27:50;14.40;99.90
9385;DHT22;4732;49.340;10.886;2023-05-10T06:30:20;14.50;99.90
9385;DHT22;4732;49.340;10.886;2023-05-10T06:32:48;14.50;99.90
9385;DHT22;4732;49.340;10.886;2023-05-10T06:35:13;14.40;99.90
9385;DHT22;4732;49.340;10.886;2023-05-10T06:37:39;14.50;99.90
9385;DHT22;4732;49.340;10.886;2023-05-10T06:40:06;14.50;99.90
9385;DHT22;4732;49.340;10.886;2023-05-10T06:42:31;14.40;99.90
9385;DHT22;4732;49.340;10.886;2023-05-10T06:44:57;14.50;99.90
9385;DHT22;4732;49.340;10.886;2023-05-10T06:47:23;14.60;99.90
9385;DHT22;4732;49.340;10.886;2023-05-10T06:49:48;14.60;99.90
9385;DHT22;4732;49.340;10.886;2023-05-10T06:52:14;14.70;99.90
9385;DHT22;4732;49.340;10.886;2023-05-10T06:54:39;14.60;99.90
9385;DHT22;4732;49.340;10.886;2023-05-10T06:57:05;14.70;99.90
9385;DHT22;4732;49.340;10.886;2023-05-10T06:59:30;14.80;99.90
9385;DHT22;4732;49.340;10.886;2023-05-10T07:01:56;14.90;99.90
9385;DHT22;4732;49.340;10.886;2023-05-10T07:04:22;14.70;99.90
9385;DHT22;4732;49.340;10.886;2023-05-10T07:06:47;14.80;99.90
9385;DHT22;4732;49.340;10.886;2023-05-10T07:09:14;14.80;99.90
9385;DHT22;4732;49.340;10.886;2023-05-10T07:11:41;14.80;99.90
9385;DHT22;4732;49.340;10.886;2023-05-10T07:14:06;14.90;99.90
9385;DHT22;4732;49.340;10.886;2023-05-10T07:16:32;14.80;99.90
9385;DHT22;4732;49.340;10.886;2023-05-10T07:18:57;14.90;99.90
9385;DHT22;4732;49.340;10.886;2023-05-10T07:21:23;15.00;99.90
9385;DHT22;4732;49.340;10.886;2023-05-10T07:23:53;15.00;99.90
9385;DHT22;4732;49.340;10.886;2023-05-10T07:26:19;15.00;99.90
9385;DHT22;4732;49.340;10.886;2023-05-10T07:28:46;15.00;99.90
9385;DHT22;4732;49.340;10.886;2023-05-10T07:31:11;14.90;99.90
9385;DHT22;4732;49.340;10.886;2023-05-10T07:33:37;15.00;99.90
9385;DHT22;4732;49.340;10.886;2023-05-10T07:36:02;15.00;99.90
9385;DHT22;4732;49.340;10.886;2023-05-10T07:38:28;15.10;99.90
9385;DHT22;4732;49.340;10.886;2023-05-10T07:40:53;15.20;99.90
9385;DHT22;4732;49.340;10.886;2023-05-10T07:43:19;14.80;99.90
9385;DHT22;4732;49.340;10.886;2023-05-10T07:45:44;14.70;99.90
9385;DHT22;4732;49.340;10.886;2023-05-10T07:48:10;14.70;99.90
9385;DHT22;4732;49.340;10.886;2023-05-10T07:50:35;14.70;99.90
9385;DHT22;4732;49.340;10.886;2023-05-10T07:53:01;14.70;99.90
9385;DHT22;4732;49.340;10.886;2023-05-10T07:55:26;14.80;99.90
9385;DHT22;4732;49.340;10.886;2023-05-10T07:57:52;14.90;99.90
9385;DHT22;4732;49.340;10.886;2023-05-10T08:00:19;15.00;99.90
9385;DHT22;4732;49.340;10.886;2023-05-10T08:02:45;15.10;99.90
9385;DHT22;4732;49.340;10.886;2023-05-10T08:05:11;15.30;99.90
9385;DHT22;4732;49.340;10.886;2023-05-10T08:07:36;15.40;99.90
9385;DHT22;4732;49.340;10.886;2023-05-10T08:10:03;15.40;99.90
9385;DHT22;4732;49.340;10.886;2023-05-10T08:12:28;15.30;99.90
9385;DHT22;4732;49.340;10.886;2023-05-10T08:14:54;15.30;99.90
9385;DHT22;4732;49.340;10.886;2023-05-10T08:17:19;15.30;99.90
9385;DHT22;4732;49.340;10.886;2023-05-10T08:19:45;15.30;99.90
9385;DHT22;4732;49.340;10.886;2023-05-10T08:22:10;15.20;99.90
9385;DHT22;4732;49.340;10.886;2023-05-10T08:24:36;15.10;99.90
9385;DHT22;4732;49.340;10.886;2023-05-10T08:27:07;14.80;99.90
9385;DHT22;4732;49.340;10.886;2023-05-10T08:29:33;14.60;99.90
9385;DHT22;4732;49.340;10.886;2023-05-10T08:31:58;14.50;99.90
9385;DHT22;4732;49.340;10.886;2023-05-10T08:34:24;14.60;99.90
9385;DHT22;4732;49.340;10.886;2023-05-10T08:36:50;14.70;99.90
9385;DHT22;4732;49.340;10.886;2023-05-10T08:39:16;14.80;99.90
9385;DHT22;4732;49.340;10.886;2023-05-10T08:41:44;15.10;99.90
9385;DHT22;4732;49.340;10.886;2023-05-10T08:44:10;15.40;99.90
9385;DHT22;4732;49.340;10.886;2023-05-10T08:46:37;15.50;99.90
9385;DHT22;4732;49.340;10.886;2023-05-10T08:49:07;15.80;99.90
9385;DHT22;4732;49.340;10.886;2023-05-10T08:51:36;16.10;99.90
9385;DHT22;4732;49.340;10.886;2023-05-10T08:54:04;16.40;99.90
9385;DHT22;4732;49.340;10.886;2023-05-10T08:56:29;16.70;99.90
9385;DHT22;4732;49.340;10.886;2023-05-10T08:58:56;16.90;99.90
9385;DHT22;4732;49.340;10.886;2023-05-10T09:01:22;17.00;99.90
9385;DHT22;4732;49.340;10.886;2023-05-10T09:03:48;17.10;99.90
9385;DHT22;4732;49.340;10.886;2023-05-10T09:06:14;17.20;99.90
9385;DHT22;4732;49.340;10.886;2023-05-10T09:08:42;17.30;99.90
9385;DHT22;4732;49.340;10.886;2023-05-10T09:11:09;17.30;99.90
9385;DHT22;4732;49.340;10.886;2023-05-10T09:13:35;17.30;99.90
9385;DHT22;4732;49.340;10.886;2023-05-10T09:16:01;17.20;99.90
9385;DHT22;4732;49.340;10.886;2023-05-10T09:18:27;17.40;99.90
9385;DHT22;4732;49.340;10.886;2023-05-10T09:20:53;17.70;99.90
9385;DHT22;4732;49.340;10.886;2023-05-10T09:23:19;17.70;99.90
9385;DHT22;4732;49.340;10.886;2023-05-10T09:25:45;17.80;99.90
9385;DHT22;4732;49.340;10.886;2023-05-10T09:28:11;18.00;99.90
9385;DHT22;4732;49.340;10.886;2023-05-10T09:30:36;18.10;99.90
9385;DHT22;4732;49.340;10.886;2023-05-10T09:33:02;17.90;99.90
9385;DHT22;4732;49.340;10.886;2023-05-10T09:35:30;17.70;99.90
9385;DHT22;4732;49.340;10.886;2023-05-10T09:37:59;17.40;99.90
9385;DHT22;4732;49.340;10.886;2023-05-10T09:40:26;17.20;99.90
9385;DHT22;4732;49.340;10.886;2023-05-10T09:43:03;16.90;99.90
9385;DHT22;4732;49.340;10.886;2023-05-10T09:45:31;16.70;99.90
9385;DHT22;4732;49.340;10.886;2023-05-10T09:47:57;16.60;99.90
9385;DHT22;4732;49.340;10.886;2023-05-10T09:50:24;16.40;99.90
9385;DHT22;4732;49.340;10.886;2023-05-10T09:52:56;16.30;99.90
9385;DHT22;4732;49.340;10.886;2023-05-10T09:55:25;16.30;99.90
9385;DHT22;4732;49.340;10.886;2023-05-10T09:58:01;16.40;99.90
9385;DHT22;4732;49.340;10.886;2023-05-10T10:00:27;16.70;99.90
9385;DHT22;4732;49.340;10.886;2023-05-10T10:02:59;16.90;99.90
9385;DHT22;4732;49.340;10.886;2023-05-10T10:05:29;17.20;99.90
9385;DHT22;4732;49.340;10.886;2023-05-10T10:07:56;17.50;99.90
9385;DHT22;4732;49.340;10.886;2023-05-10T10:10:22;17.90;99.90
9385;DHT22;4732;49.340;10.886;2023-05-10T10:12:48;17.80;99.90
9385;DHT22;4732;49.340;10.886;2023-05-10T10:15:14;17.70;99.90
9385;DHT22;4732;49.340;10.886;2023-05-10T10:17:41;17.40;99.90
9385;DHT22;4732;49.340;10.886;2023-05-10T10:20:08;17.20;99.90
9385;DHT22;4732;49.340;10.886;2023-05-10T10:22:34;17.10;99.90
9385;DHT22;4732;49.340;10.886;2023-05-10T10:25:00;16.90;99.90
9385;DHT22;4732;49.340;10.886;2023-05-10T10:30:21;16.60;99.90
9385;DHT22;4732;49.340;10.886;2023-05-10T10:35:59;16.30;99.90
9385;DHT22;4732;49.340;10.886;2023-05-10T10:38:25;16.30;99.90
9385;DHT22;4732;49.340;10.886;2023-05-10T10:41:11;16.20;99.90
9385;DHT22;4732;49.340;10.886;2023-05-10T10:47:23;16.30;99.90
9385;DHT22;4732;49.340;10.886;2023-05-10T10:52:32;16.20;99.90
9385;DHT22;4732;49.340;10.886;2023-05-10T10:57:54;16.20;99.90
9385;DHT22;4732;49.340;10.886;2023-05-10T11:00:36;16.30;99.90
9385;DHT22;4732;49.340;10.886;2023-05-10T11:03:06;16.30;99.90
9385;DHT22;4732;49.340;10.886;2023-05-10T11:05:38;16.40;99.90
9385;DHT22;4732;49.340;10.886;2023-05-10T11:08:11;16.50;99.90
9385;DHT22;4732;49.340;10.886;2023-05-10T11:10:38;16.50;99.90
9385;DHT22;4732;49.340;10.886;2023-05-10T11:13:05;16.60;99.90
9385;DHT22;4732;49.340;10.886;2023-05-10T11:15:36;16.70;99.90
9385;DHT22;4732;49.340;10.886;2023-05-10T11:18:26;16.80;99.90
9385;DHT22;4732;49.340;10.886;2023-05-10T11:21:02;16.90;99.90
9385;DHT22;4732;49.340;10.886;2023-05-10T11:25:57;17.10;99.90
9385;DHT22;4732;49.340;10.886;2023-05-10T11:28:22;17.30;99.90
9385;DHT22;4732;49.340;10.886;2023-05-10T11:30:48;17.40;99.90
9385;DHT22;4732;49.340;10.886;2023-05-10T11:33:17;17.40;99.90
9385;DHT22;4732;49.340;10.886;2023-05-10T11:35:44;17.50;99.90
9385;DHT22;4732;49.340;10.886;2023-05-10T11:38:11;17.40;99.90
9385;DHT22;4732;49.340;10.886;2023-05-10T11:40:38;17.20;99.90
9385;DHT22;4732;49.340;10.886;2023-05-10T11:43:05;17.20;99.90
9385;DHT22;4732;49.340;10.886;2023-05-10T11:45:34;17.20;99.90
9385;DHT22;4732;49.340;10.886;2023-05-10T11:48:00;17.30;99.90
9385;DHT22;4732;49.340;10.886;2023-05-10T11:50:26;17.40;99.90
9385;DHT22;4732;49.340;10.886;2023-05-10T11:52:52;17.50;99.90
9385;DHT22;4732;49.340;10.886;2023-05-10T11:55:18;17.40;99.90
9385;DHT22;4732;49.340;10.886;2023-05-10T11:57:43;17.40;99.90
9385;DHT22;4732;49.340;10.886;2023-05-10T12:00:14;17.30;99.90
9385;DHT22;4732;49.340;10.886;2023-05-10T12:02:40;17.30;99.90
9385;DHT22;4732;49.340;10.886;2023-05-10T12:05:06;17.10;99.90
9385;DHT22;4732;49.340;10.886;2023-05-10T12:07:32;17.10;99.90
9385;DHT22;4732;49.340;10.886;2023-05-10T12:10:09;16.90;99.90
9385;DHT22;4732;49.340;10.886;2023-05-10T12:12:46;16.90;99.90
9385;DHT22;4732;49.340;10.886;2023-05-10T12:15:22;16.90;99.90
9385;DHT22;4732;49.340;10.886;2023-05-10T12:17:49;16.80;99.90
9385;DHT22;4732;49.340;10.886;2023-05-10T12:22:45;16.70;99.90
9385;DHT22;4732;49.340;10.886;2023-05-10T12:25:10;16.80;99.90
9385;DHT22;4732;49.340;10.886;2023-05-10T12:27:36;16.90;99.90
9385;DHT22;4732;49.340;10.886;2023-05-10T12:30:02;16.80;99.90
9385;DHT22;4732;49.340;10.886;2023-05-10T12:32:41;16.80;99.90
9385;DHT22;4732;49.340;10.886;2023-05-10T12:35:07;16.80;99.90
9385;DHT22;4732;49.340;10.886;2023-05-10T12:37:34;16.80;99.90
9385;DHT22;4732;49.340;10.886;2023-05-10T12:40:08;16.80;99.90
9385;DHT22;4732;49.340;10.886;2023-05-10T12:42:35;16.90;99.90
9385;DHT22;4732;49.340;10.886;2023-05-10T12:45:04;16.80;99.90
9385;DHT22;4732;49.340;10.886;2023-05-10T12:47:31;17.00;99.90
9385;DHT22;4732;49.340;10.886;2023-05-10T12:49:57;17.00;99.90
9385;DHT22;4732;49.340;10.886;2023-05-10T12:52:23;17.10;99.90
9385;DHT22;4732;49.340;10.886;2023-05-10T12:54:48;17.20;99.90
9385;DHT22;4732;49.340;10.886;2023-05-10T12:57:14;17.30;99.90
9385;DHT22;4732;49.340;10.886;2023-05-10T12:59:40;17.40;99.90
9385;DHT22;4732;49.340;10.886;2023-05-10T13:02:06;17.50;99.90
9385;DHT22;4732;49.340;10.886;2023-05-10T13:04:31;17.70;99.90
9385;DHT22;4732;49.340;10.886;2023-05-10T13:06:57;17.80;99.90
9385;DHT22;4732;49.340;10.886;2023-05-10T13:09:24;17.80;99.90
9385;DHT22;4732;49.340;10.886;2023-05-10T13:11:50;17.80;99.90
9385;DHT22;4732;49.340;10.886;2023-05-10T13:14:16;17.80;99.90
9385;DHT22;4732;49.340;10.886;2023-05-10T13:16:41;17.90;99.90
9385;DHT22;4732;49.340;10.886;2023-05-10T13:19:07;17.80;99.90
9385;DHT22;4732;49.340;10.886;2023-05-10T13:21:32;17.80;99.90
9385;DHT22;4732;49.340;10.886;2023-05-10T13:23:58;17.70;99.90
9385;DHT22;4732;49.340;10.886;2023-05-10T13:26:24;17.80;99.90
9385;DHT22;4732;49.340;10.886;2023-05-10T13:28:50;17.70;99.90
9385;DHT22;4732;49.340;10.886;2023-05-10T13:31:16;17.70;99.90
9385;DHT22;4732;49.340;10.886;2023-05-10T13:33:42;17.50;99.90
9385;DHT22;4732;49.340;10.886;2023-05-10T13:36:07;17.50;99.90
9385;DHT22;4732;49.340;10.886;2023-05-10T13:38:33;17.50;99.90
9385;DHT22;4732;49.340;10.886;2023-05-10T13:40:58;17.60;99.90
9385;DHT22;4732;49.340;10.886;2023-05-10T13:43:24;17.50;99.90
9385;DHT22;4732;49.340;10.886;2023-05-10T13:45:50;17.50;99.90
9385;DHT22;4732;49.340;10.886;2023-05-10T13:48:15;17.40;99.90
9385;DHT22;4732;49.340;10.886;2023-05-10T13:50:41;17.40;99.90
9385;DHT22;4732;49.340;10.886;2023-05-10T13:53:06;17.40;99.90
9385;DHT22;4732;49.340;10.886;2023-05-10T13:55:32;17.30;99.90
9385;DHT22;4732;49.340;10.886;2023-05-10T13:57:57;17.20;99.90
9385;DHT22;4732;49.340;10.886;2023-05-10T14:00:23;17.20;99.90
9385;DHT22;4732;49.340;10.886;2023-05-10T14:02:48;17.40;99.90
9385;DHT22;4732;49.340;10.886;2023-05-10T14:05:14;17.20;99.90
9385;DHT22;4732;49.340;10.886;2023-05-10T14:07:39;17.30;99.90
9385;DHT22;4732;49.340;10.886;2023-05-10T14:10:05;17.20;99.90
9385;DHT22;4732;49.340;10.886;2023-05-10T14:12:31;17.30;99.90
9385;DHT22;4732;49.340;10.886;2023-05-10T14:14:56;17.50;99.90
9385;DHT22;4732;49.340;10.886;2023-05-10T14:17:23;17.50;99.90
9385;DHT22;4732;49.340;10.886;2023-05-10T14:19:48;17.50;99.90
9385;DHT22;4732;49.340;10.886;2023-05-10T14:22:14;17.60;99.90
9385;DHT22;4732;49.340;10.886;2023-05-10T14:24:39;17.60;99.90
9385;DHT22;4732;49.340;10.886;2023-05-10T14:27:08;17.80;99.90
9385;DHT22;4732;49.340;10.886;2023-05-10T14:29:33;17.80;99.90
9385;DHT22;4732;49.340;10.886;2023-05-10T14:31:59;17.90;99.90
9385;DHT22;4732;49.340;10.886;2023-05-10T14:34:24;17.90;99.90
9385;DHT22;4732;49.340;10.886;2023-05-10T14:36:50;17.90;99.90
9385;DHT22;4732;49.340;10.886;2023-05-10T14:39:16;18.10;99.90
9385;DHT22;4732;49.340;10.886;2023-05-10T14:41:41;18.10;99.90
9385;DHT22;4732;49.340;10.886;2023-05-10T14:44:08;18.20;99.90
9385;DHT22;4732;49.340;10.886;2023-05-10T14:46:33;18.30;99.90
9385;DHT22;4732;49.340;10.886;2023-05-10T14:48:59;18.20;99.90
9385;DHT22;4732;49.340;10.886;2023-05-10T14:51:25;18.20;99.90
9385;DHT22;4732;49.340;10.886;2023-05-10T14:53:50;18.20;99.90
9385;DHT22;4732;49.340;10.886;2023-05-10T14:56:16;18.00;99.90
9385;DHT22;4732;49.340;10.886;2023-05-10T14:58:41;17.80;99.90
9385;DHT22;4732;49.340;10.886;2023-05-10T15:01:07;17.50;99.90
9385;DHT22;4732;49.340;10.886;2023-05-10T15:03:32;17.10;99.90
9385;DHT22;4732;49.340;10.886;2023-05-10T15:05:58;16.90;99.90
9385;DHT22;4732;49.340;10.886;2023-05-10T15:08:24;16.70;99.90
9385;DHT22;4732;49.340;10.886;2023-05-10T15:10:52;16.50;99.90
9385;DHT22;4732;49.340;10.886;2023-05-10T15:13:20;16.40;99.90
9385;DHT22;4732;49.340;10.886;2023-05-10T15:15:46;16.20;99.90
9385;DHT22;4732;49.340;10.886;2023-05-10T15:18:11;16.20;99.90
9385;DHT22;4732;49.340;10.886;2023-05-10T15:23:03;15.90;99.90
9385;DHT22;4732;49.340;10.886;2023-05-10T15:25:28;15.80;99.90
9385;DHT22;4732;49.340;10.886;2023-05-10T15:27:54;15.80;99.90
9385;DHT22;4732;49.340;10.886;2023-05-10T15:30:20;15.70;99.90
9385;DHT22;4732;49.340;10.886;2023-05-10T15:32:45;15.70;99.90
9385;DHT22;4732;49.340;10.886;2023-05-10T15:35:11;15.60;99.90
9385;DHT22;4732;49.340;10.886;2023-05-10T15:37:37;15.60;99.90
9385;DHT22;4732;49.340;10.886;2023-05-10T15:40:03;15.40;99.90
9385;DHT22;4732;49.340;10.886;2023-05-10T15:42:31;15.30;99.90
9385;DHT22;4732;49.340;10.886;2023-05-10T15:44:57;15.30;99.90
9385;DHT22;4732;49.340;10.886;2023-05-10T15:47:23;15.20;99.90
9385;DHT22;4732;49.340;10.886;2023-05-10T15:49:49;15.10;99.90
9385;DHT22;4732;49.340;10.886;2023-05-10T15:52:14;15.20;99.90
9385;DHT22;4732;49.340;10.886;2023-05-10T15:54:41;15.10;99.90
9385;DHT22;4732;49.340;10.886;2023-05-10T15:57:06;15.20;99.90
9385;DHT22;4732;49.340;10.886;2023-05-10T15:59:32;15.10;99.90
9385;DHT22;4732;49.340;10.886;2023-05-10T16:01:58;15.00;99.90
9385;DHT22;4732;49.340;10.886;2023-05-10T16:04:23;15.00;99.90
9385;DHT22;4732;49.340;10.886;2023-05-10T16:06:49;15.00;99.90
9385;DHT22;4732;49.340;10.886;2023-05-10T16:09:14;15.00;99.90
9385;DHT22;4732;49.340;10.886;2023-05-10T16:11:42;15.10;99.90
9385;DHT22;4732;49.340;10.886;2023-05-10T16:14:07;15.10;99.90
9385;DHT22;4732;49.340;10.886;2023-05-10T16:16:33;15.00;99.90
9385;DHT22;4732;49.340;10.886;2023-05-10T16:18:58;15.10;99.90
9385;DHT22;4732;49.340;10.886;2023-05-10T16:21:26;15.00;99.90
9385;DHT22;4732;49.340;10.886;2023-05-10T16:23:53;15.10;99.90
9385;DHT22;4732;49.340;10.886;2023-05-10T16:26:18;15.00;99.90
9385;DHT22;4732;49.340;10.886;2023-05-10T16:28:44;15.00;99.90
9385;DHT22;4732;49.340;10.886;2023-05-10T16:31:09;15.00;99.90
9385;DHT22;4732;49.340;10.886;2023-05-10T16:33:35;15.00;99.90
9385;DHT22;4732;49.340;10.886;2023-05-10T16:36:01;15.10;99.90
9385;DHT22;4732;49.340;10.886;2023-05-10T16:38:27;15.10;99.90
9385;DHT22;4732;49.340;10.886;2023-05-10T16:40:52;15.10;99.90
9385;DHT22;4732;49.340;10.886;2023-05-10T16:43:18;15.10;99.90
9385;DHT22;4732;49.340;10.886;2023-05-10T16:45:43;15.10;99.90
9385;DHT22;4732;49.340;10.886;2023-05-10T16:48:09;15.00;99.90
9385;DHT22;4732;49.340;10.886;2023-05-10T16:50:34;15.10;99.90
9385;DHT22;4732;49.340;10.886;2023-05-10T16:53:00;15.00;99.90
9385;DHT22;4732;49.340;10.886;2023-05-10T16:55:25;15.10;99.90
9385;DHT22;4732;49.340;10.886;2023-05-10T16:57:51;15.10;99.90
9385;DHT22;4732;49.340;10.886;2023-05-10T17:00:17;15.20;99.90
9385;DHT22;4732;49.340;10.886;2023-05-10T17:02:44;15.10;99.90
9385;DHT22;4732;49.340;10.886;2023-05-10T17:05:10;15.10;99.90
9385;DHT22;4732;49.340;10.886;2023-05-10T17:07:35;15.10;99.90
9385;DHT22;4732;49.340;10.886;2023-05-10T17:10:01;15.00;99.90
9385;DHT22;4732;49.340;10.886;2023-05-10T17:12:27;15.10;99.90
9385;DHT22;4732;49.340;10.886;2023-05-10T17:14:52;15.10;99.90
9385;DHT22;4732;49.340;10.886;2023-05-10T17:17:18;15.00;99.90
9385;DHT22;4732;49.340;10.886;2023-05-10T17:19:46;15.10;99.90
9385;DHT22;4732;49.340;10.886;2023-05-10T17:22:12;15.10;99.90
9385;DHT22;4732;49.340;10.886;2023-05-10T17:24:38;15.10;99.90
9385;DHT22;4732;49.340;10.886;2023-05-10T17:27:03;15.00;99.90
9385;DHT22;4732;49.340;10.886;2023-05-10T17:29:29;15.00;99.90
9385;DHT22;4732;49.340;10.886;2023-05-10T17:31:57;14.90;99.90
9385;DHT22;4732;49.340;10.886;2023-05-10T17:34:22;14.90;99.90
9385;DHT22;4732;49.340;10.886;2023-05-10T17:36:48;14.90;99.90
9385;DHT22;4732;49.340;10.886;2023-05-10T17:39:14;14.80;99.90
9385;DHT22;4732;49.340;10.886;2023-05-10T17:41:39;14.80;99.90
9385;DHT22;4732;49.340;10.886;2023-05-10T17:44:05;14.90;99.90
9385;DHT22;4732;49.340;10.886;2023-05-10T17:46:31;14.80;99.90
9385;DHT22;4732;49.340;10.886;2023-05-10T17:48:57;14.70;99.90
9385;DHT22;4732;49.340;10.886;2023-05-10T17:51:23;14.70;99.90
9385;DHT22;4732;49.340;10.886;2023-05-10T17:53:48;14.70;99.90
9385;DHT22;4732;49.340;10.886;2023-05-10T17:56:14;14.70;99.90
9385;DHT22;4732;49.340;10.886;2023-05-10T17:58:39;14.70;99.90
9385;DHT22;4732;49.340;10.886;2023-05-10T18:01:06;14.70;99.90
9385;DHT22;4732;49.340;10.886;2023-05-10T18:03:31;14.60;99.90
9385;DHT22;4732;49.340;10.886;2023-05-10T18:05:57;14.60;99.90
9385;DHT22;4732;49.340;10.886;2023-05-10T18:08:22;14.60;99.90
9385;DHT22;4732;49.340;10.886;2023-05-10T18:10:51;14.50;99.90
9385;DHT22;4732;49.340;10.886;2023-05-10T18:13:17;14.40;99.90
9385;DHT22;4732;49.340;10.886;2023-05-10T18:15:42;14.40;99.90
9385;DHT22;4732;49.340;10.886;2023-05-10T18:18:08;14.30;99.90
9385;DHT22;4732;49.340;10.886;2023-05-10T18:20:35;14.30;99.90
9385;DHT22;4732;49.340;10.886;2023-05-10T18:23:00;14.30;99.90
9385;DHT22;4732;49.340;10.886;2023-05-10T18:25:26;14.30;99.90
9385;DHT22;4732;49.340;10.886;2023-05-10T18:27:52;14.30;99.90
9385;DHT22;4732;49.340;10.886;2023-05-10T18:30:18;14.30;99.90
9385;DHT22;4732;49.340;10.886;2023-05-10T18:32:44;14.30;99.90
9385;DHT22;4732;49.340;10.886;2023-05-10T18:35:09;14.30;99.90
9385;DHT22;4732;49.340;10.886;2023-05-10T18:37:36;14.30;99.90
9385;DHT22;4732;49.340;10.886;2023-05-10T18:40:03;14.20;99.90
9385;DHT22;4732;49.340;10.886;2023-05-10T18:42:29;14.20;99.90
9385;DHT22;4732;49.340;10.886;2023-05-10T18:44:54;14.20;99.90
9385;DHT22;4732;49.340;10.886;2023-05-10T18:47:20;14.10;99.90
9385;DHT22;4732;49.340;10.886;2023-05-10T18:49:46;14.10;99.90
9385;DHT22;4732;49.340;10.886;2023-05-10T18:52:12;14.10;99.90
9385;DHT22;4732;49.340;10.886;2023-05-10T18:54:40;14.10;99.90
9385;DHT22;4732;49.340;10.886;2023-05-10T18:57:06;14.10;99.90
9385;DHT22;4732;49.340;10.886;2023-05-10T18:59:32;14.10;99.90
9385;DHT22;4732;49.340;10.886;2023-05-10T19:01:58;14.10;99.90
9385;DHT22;4732;49.340;10.886;2023-05-10T19:04:23;14.10;99.90
9385;DHT22;4732;49.340;10.886;2023-05-10T19:06:49;14.10;99.90
9385;DHT22;4732;49.340;10.886;2023-05-10T19:09:14;14.00;99.90